createdAt,value
2022-10-26T00:04:13.832Z,99444.52
2022-10-26T00:09:21.160Z,99446.68
2022-10-26T00:14:30.030Z,99445.44
2022-10-26T00:19:38.292Z,99456.04
2022-10-26T00:24:45.331Z,99463.65
2022-10-26T00:29:52.498Z,99467.33
2022-10-26T00:35:10.321Z,99464.77
2022-10-26T00:40:31.057Z,99464.65
2022-10-26T00:45:38.250Z,99461.05
2022-10-26T00:50:47.912Z,99467.99
2022-10-26T00:55:57.689Z,99466.06
2022-10-26T01:01:04.834Z,99462.50
2022-10-26T01:06:13.362Z,99464.02
2022-10-26T01:11:21.078Z,99466.04
2022-10-26T01:26:54.096Z,99472.65
2022-10-26T01:32:05.005Z,99459.30
2022-10-26T01:37:12.408Z,99460.13
2022-10-26T01:42:18.159Z,99462.46
2022-10-26T01:47:23.694Z,99461.81
2022-10-26T01:52:27.717Z,99461.21
2022-10-26T01:57:35.111Z,99461.30
2022-10-26T02:03:00.371Z,99461.38
2022-10-26T02:08:18.959Z,99459.86
2022-10-26T02:13:30.393Z,99462.07
2022-10-26T02:18:39.492Z,99462.52
2022-10-26T02:23:45.989Z,99465.84
2022-10-26T02:28:54.886Z,99466.36
2022-10-26T02:34:02.434Z,99461.58
2022-10-26T02:39:07.857Z,99466.36
2022-10-26T02:44:19.223Z,99466.86
2022-10-26T02:49:23.369Z,99466.06
2022-10-26T02:54:32.662Z,99466.90
2022-10-26T02:59:40.540Z,99462.81
2022-10-26T03:04:44.391Z,99474.50
2022-10-26T03:09:47.851Z,99480.48
2022-10-26T03:14:51.646Z,99483.14
2022-10-26T03:19:55.572Z,99484.10
2022-10-26T03:24:59.161Z,99483.92
2022-10-26T03:30:02.726Z,99492.34
2022-10-26T03:35:08.048Z,99497.77
2022-10-26T03:40:13.588Z,99500.07
2022-10-26T03:45:17.603Z,99504.70
2022-10-26T03:50:22.331Z,99503.52
2022-10-26T03:55:25.965Z,99501.28
2022-10-26T04:00:29.921Z,99503.35
2022-10-26T04:05:33.302Z,99499.58
2022-10-26T04:10:36.913Z,99501.83
2022-10-26T04:15:41.052Z,99498.85
2022-10-26T04:20:44.560Z,99499.66
2022-10-26T04:25:48.279Z,99501.45
2022-10-26T04:30:52.219Z,99501.96
2022-10-26T04:36:00.931Z,99497.83
2022-10-26T04:41:04.642Z,99497.73
2022-10-26T04:46:08.052Z,99494.62
2022-10-26T04:51:12.295Z,99502.14
2022-10-26T04:56:16.155Z,99502.29
2022-10-26T05:01:19.756Z,99503.69
2022-10-26T05:06:23.502Z,99504.36
2022-10-26T05:11:26.959Z,99511.40
2022-10-26T05:16:30.459Z,99512.89
2022-10-26T05:21:33.934Z,99512.55
2022-10-26T05:26:37.351Z,99517.14
2022-10-26T05:31:40.823Z,99525.67
2022-10-26T05:36:44.589Z,99535.14
2022-10-26T05:41:48.025Z,99540.98
2022-10-26T05:46:51.487Z,99542.87
2022-10-26T05:51:55.167Z,99551.40
2022-10-26T05:57:00.122Z,99549.27
2022-10-26T06:02:17.372Z,99551.17
2022-10-26T06:07:23.107Z,99557.38
2022-10-26T06:12:28.159Z,99558.92
2022-10-26T06:17:45.464Z,99565.39
2022-10-26T06:22:53.319Z,99563.60
2022-10-26T06:28:08.187Z,99564.56
2022-10-26T06:33:24.623Z,99570.49
2022-10-26T06:38:35.268Z,99575.87
2022-10-26T06:43:40.811Z,99582.85
2022-10-26T06:48:52.608Z,99583.23
2022-10-26T06:54:05.361Z,99585.41
2022-10-26T06:59:16.799Z,99591.95
2022-10-26T07:04:20.377Z,99595.88
2022-10-26T07:09:24.065Z,99598.62
2022-10-26T07:14:27.538Z,99598.09
2022-10-26T07:19:31.630Z,99600.50
2022-10-26T07:24:35.309Z,99600.50
2022-10-26T07:29:39.195Z,99603.52
2022-10-26T07:34:43.121Z,99607.30
2022-10-26T07:39:46.715Z,99610.94
2022-10-26T07:44:50.249Z,99610.10
2022-10-26T07:49:54.378Z,99612.19
2022-10-26T07:54:58.039Z,99612.85
2022-10-26T08:00:01.614Z,99612.91
2022-10-26T08:05:07.417Z,99608.40
2022-10-26T08:10:12.115Z,99606.67
2022-10-26T08:15:16.603Z,99603.98
2022-10-26T08:20:20.774Z,99607.52
2022-10-26T08:25:24.827Z,99612.70
2022-10-26T08:30:28.623Z,99610.35
2022-10-26T08:35:32.968Z,99606.70
2022-10-26T08:40:39.652Z,99602.66
2022-10-26T08:45:50.740Z,99602.21
2022-10-26T08:50:56.890Z,99603.45
2022-10-26T08:56:06.299Z,99604.27
2022-10-26T09:01:11.258Z,99607.41
2022-10-26T09:06:23.587Z,99607.96
2022-10-26T09:11:41.903Z,99603.08
2022-10-26T09:16:57.752Z,99603.98
2022-10-26T09:22:11.130Z,99603.14
2022-10-26T09:27:21.421Z,99606.59
2022-10-26T09:32:31.057Z,99607.73
2022-10-26T09:37:40.835Z,99610.09
2022-10-26T09:42:49.795Z,99613.48
2022-10-26T09:47:56.871Z,99612.52
2022-10-26T09:53:00.369Z,99615.20
2022-10-26T09:58:13.095Z,99615.71
2022-10-26T10:03:21.394Z,99611.36
2022-10-26T10:08:27.250Z,99606.11
2022-10-26T10:13:33.885Z,99609.24
2022-10-26T10:18:39.508Z,99608.33
2022-10-26T10:23:51.371Z,99611.58
2022-10-26T10:28:59.543Z,99606.13
2022-10-26T10:34:16.798Z,99607.42
2022-10-26T10:39:37.663Z,99605.77
2022-10-26T10:44:44.239Z,99608.55
2022-10-26T10:49:56.300Z,99606.86
2022-10-26T10:55:18.215Z,99604.73
2022-10-26T11:00:22.507Z,99599.27
2022-10-26T11:05:43.210Z,99601.42
2022-10-26T11:10:51.456Z,99596.63
2022-10-26T11:16:00.465Z,99598.63
2022-10-26T11:21:09.173Z,99595.50
2022-10-26T11:26:16.913Z,99598.73
2022-10-26T11:31:28.031Z,99599.30
2022-10-26T11:36:35.963Z,99597.28
2022-10-26T11:41:45.825Z,99596.58
2022-10-26T11:46:55.401Z,99595.27
2022-10-26T11:52:04.632Z,99589.48
2022-10-26T11:57:10.569Z,99591.33
2022-10-26T12:02:18.197Z,99593.33
2022-10-26T12:07:28.132Z,99598.48
2022-10-26T12:12:40.836Z,99598.24
2022-10-26T12:17:49.141Z,99599.05
2022-10-26T12:22:53.293Z,99599.92
2022-10-26T12:27:59.868Z,99595.84
2022-10-26T12:33:24.383Z,99597.54
2022-10-26T12:39:04.927Z,99591.19
2022-10-26T12:44:33.346Z,99587.33
2022-10-26T12:50:00.539Z,99585.63
2022-10-26T12:55:34.391Z,99586.44
2022-10-26T13:00:43.979Z,99588.23
2022-10-26T13:06:36.853Z,99590.95
2022-10-26T13:11:46.647Z,99593.73
2022-10-26T13:16:50.612Z,99592.17
2022-10-26T13:21:58.053Z,99589.72
2022-10-26T13:27:25.295Z,99587.89
2022-10-26T13:32:29.897Z,99588.06
2022-10-26T13:37:34.949Z,99588.14
2022-10-26T13:42:46.031Z,99592.66
2022-10-26T13:47:56.572Z,99599.59
2022-10-26T13:53:07.274Z,99600.77
2022-10-26T13:58:19.492Z,99597.16
2022-10-26T14:03:23.289Z,99600.27
2022-10-26T14:08:27.007Z,99598.05
2022-10-26T14:13:32.400Z,99596.91
2022-10-26T14:18:38.026Z,99597.74
2022-10-26T14:40:02.128Z,99599.60
2022-10-26T14:45:29.819Z,99605.28
2022-10-26T14:51:05.304Z,99607.08
2022-10-26T14:56:25.211Z,99609.27
2022-10-26T15:01:49.019Z,99616.41
2022-10-26T15:07:02.431Z,99617.48
2022-10-26T15:12:19.443Z,99618.06
2022-10-26T15:17:32.817Z,99621.02
2022-10-26T15:22:40.193Z,99628.84
2022-10-26T15:27:47.404Z,99633.41
2022-10-26T15:32:56.182Z,99637.58
2022-10-26T15:38:03.323Z,99639.14
2022-10-26T15:43:14.110Z,99648.58
2022-10-26T15:48:25.698Z,99651.77
2022-10-26T15:53:33.021Z,99652.14
2022-10-26T15:58:40.145Z,99655.70
2022-10-26T16:03:47.829Z,99656.96
2022-10-26T16:08:57.795Z,99664.44
2022-10-26T16:14:05.083Z,99665.19
2022-10-26T16:24:40.786Z,99668.81
2022-10-26T16:29:48.299Z,99667.59
2022-10-26T16:34:55.279Z,99670.86
2022-10-26T16:40:02.181Z,99667.75
2022-10-26T16:45:10.550Z,99669.02
2022-10-26T16:50:20.619Z,99675.34
2022-10-26T16:55:28.048Z,99679.05
2022-10-26T17:00:38.059Z,99681.78
2022-10-26T17:05:45.266Z,99683.91
2022-10-26T17:10:52.322Z,99690.41
2022-10-26T17:16:03.888Z,99699.44
2022-10-26T17:21:12.001Z,99703.52
2022-10-26T17:26:19.160Z,99710.69
2022-10-26T17:31:26.880Z,99712.66
2022-10-26T17:36:34.071Z,99714.92
2022-10-26T17:41:41.496Z,99723.33
2022-10-26T17:46:48.893Z,99734.17
2022-10-26T17:51:56.091Z,99736.66
2022-10-26T17:57:03.013Z,99744.55
2022-10-26T18:02:10.118Z,99745.56
2022-10-26T18:07:17.146Z,99752.13
2022-10-26T18:12:22.574Z,99753.70
2022-10-26T18:17:29.579Z,99755.82
2022-10-26T18:22:36.539Z,99751.92
2022-10-26T18:27:43.856Z,99756.99
2022-10-26T18:32:53.557Z,99767.05
2022-10-26T18:38:00.689Z,99771.73
2022-10-26T18:43:07.638Z,99777.14
2022-10-26T18:48:13.040Z,99778.54
2022-10-26T18:58:34.609Z,99783.14
2022-10-26T19:03:43.928Z,99792.18
2022-10-26T19:08:52.075Z,99799.06
2022-10-26T19:14:00.574Z,99804.39
2022-10-26T19:19:09.414Z,99804.57
2022-10-26T19:24:18.982Z,99815.96
2022-10-26T19:29:26.321Z,99819.36
2022-10-26T19:34:33.975Z,99819.77
2022-10-26T19:39:40.917Z,99827.27
2022-10-26T19:44:46.275Z,99833.67
2022-10-26T19:49:53.383Z,99837.14
2022-10-26T19:54:58.721Z,99844.88
2022-10-26T20:00:06.973Z,99848.05
2022-10-26T20:05:13.973Z,99852.70
2022-10-26T20:10:19.517Z,99856.57
2022-10-26T20:15:26.599Z,99864.05
2022-10-26T20:20:35.141Z,99862.58
2022-10-26T20:25:47.200Z,99866.91
2022-10-26T20:30:54.126Z,99871.62
2022-10-26T20:36:02.643Z,99875.75
2022-10-26T20:41:14.132Z,99879.08
2022-10-26T20:46:25.510Z,99880.59
2022-10-26T20:51:56.750Z,99883.70
2022-10-26T20:57:16.173Z,99886.33
2022-10-26T21:02:24.028Z,99891.11
2022-10-26T21:07:31.178Z,99897.77
2022-10-26T21:12:38.629Z,99900.33
2022-10-26T21:17:45.579Z,99899.61
2022-10-26T21:22:52.843Z,99904.31
2022-10-26T21:28:00.336Z,99903.64
2022-10-26T21:33:07.427Z,99901.11
2022-10-26T21:38:13.403Z,99905.31
2022-10-26T21:43:20.343Z,99911.08
2022-10-26T21:48:27.837Z,99918.83
2022-10-26T21:53:35.307Z,99925.73
2022-10-26T21:58:42.409Z,99929.32
2022-10-26T22:03:47.987Z,99928.00
2022-10-26T22:08:55.749Z,99930.61
2022-10-26T22:14:03.099Z,99929.76
2022-10-26T22:19:11.296Z,99933.92
2022-10-26T22:24:18.669Z,99930.11
2022-10-26T22:29:25.828Z,99936.08
2022-10-26T22:34:33.464Z,99940.33
2022-10-26T22:39:40.447Z,99937.15
2022-10-26T22:44:48.233Z,99938.05
2022-10-26T22:49:55.476Z,99942.34
2022-10-26T22:55:03.095Z,99942.69
2022-10-26T23:00:12.602Z,99947.57
2022-10-26T23:05:19.751Z,99950.23
2022-10-26T23:10:27.443Z,99947.58
2022-10-26T23:15:34.608Z,99941.16
2022-10-26T23:20:42.655Z,99951.06
2022-10-26T23:25:49.746Z,99952.27
2022-10-26T23:30:55.061Z,99953.81
2022-10-26T23:36:02.412Z,99954.39
2022-10-26T23:41:12.185Z,99956.09
2022-10-26T23:46:20.242Z,99956.84
2022-10-26T23:51:25.988Z,99959.66
2022-10-26T23:56:32.961Z,99966.42
